createdAt,value
2023-03-03T06:06:25.691Z,0.58
2023-03-03T06:09:03.288Z,0.55
2023-03-03T06:11:32.632Z,0.62
2023-03-03T06:14:00.372Z,0.56
2023-03-03T06:16:27.313Z,0.59
2023-03-03T06:18:54.817Z,0.60
2023-03-03T06:21:39.298Z,0.61
2023-03-03T06:24:12.913Z,0.68
2023-03-03T06:26:43.220Z,0.68
2023-03-03T06:29:19.422Z,0.65
2023-03-03T06:31:47.191Z,0.63
2023-03-03T06:34:49.730Z,0.58
2023-03-03T06:37:29.135Z,0.64
2023-03-03T06:40:21.632Z,0.62
2023-03-03T06:42:51.703Z,0.65
2023-03-03T06:45:20.220Z,0.71
2023-03-03T06:47:47.361Z,0.72
2023-03-03T06:50:21.249Z,0.76
2023-03-03T06:52:48.511Z,0.76
2023-03-03T06:55:24.658Z,0.70
2023-03-03T06:58:12.274Z,0.71
2023-03-03T07:00:48.056Z,0.62
2023-03-03T07:03:32.558Z,0.61
2023-03-03T07:06:43.947Z,0.65
2023-03-03T07:09:21.914Z,0.68
2023-03-03T07:11:48.561Z,0.66
2023-03-03T07:14:19.187Z,0.68
2023-03-03T07:16:46.346Z,0.68
2023-03-03T07:19:33.276Z,0.70
2023-03-03T07:22:12.562Z,0.68
2023-03-03T07:24:40.234Z,0.69
2023-03-03T07:27:11.823Z,0.72
2023-03-03T07:29:41.594Z,0.65
2023-03-03T07:32:22.802Z,0.65
2023-03-03T07:34:53.751Z,0.65
2023-03-03T07:37:34.935Z,0.64
2023-03-03T07:40:27.315Z,0.70
2023-03-03T07:42:54.078Z,0.71
2023-03-03T07:45:36.920Z,0.73
2023-03-03T07:48:25.234Z,0.79
2023-03-03T07:50:52.337Z,0.82
2023-03-03T07:53:35.094Z,0.81
2023-03-03T07:56:02.297Z,0.81
2023-03-03T07:58:40.730Z,0.80
2023-03-03T08:01:28.192Z,0.84
2023-03-03T08:03:56.716Z,0.81
2023-03-03T08:06:35.530Z,0.87
2023-03-03T08:09:11.535Z,0.91
2023-03-03T08:11:49.831Z,0.96
2023-03-03T08:14:26.427Z,1.07
2023-03-03T08:16:53.277Z,1.15
2023-03-03T08:19:20.125Z,1.17
2023-03-03T08:21:46.824Z,1.23
2023-03-03T08:24:13.646Z,1.22
2023-03-03T08:26:40.414Z,1.21
2023-03-03T08:29:07.303Z,1.22
2023-03-03T08:31:41.226Z,1.22
2023-03-03T08:34:09.303Z,1.19
2023-03-03T08:36:35.838Z,1.18
2023-03-03T08:39:04.910Z,1.21
2023-03-03T08:41:31.560Z,1.23
2023-03-03T08:43:58.343Z,1.31
2023-03-03T08:46:25.022Z,1.39
2023-03-03T08:48:53.033Z,1.37
2023-03-03T08:51:19.830Z,1.43
2023-03-03T08:53:47.253Z,1.46
2023-03-03T08:56:15.168Z,1.42
2023-03-03T08:59:03.200Z,1.45
2023-03-03T09:01:32.519Z,1.58
2023-03-03T09:03:59.930Z,1.64
2023-03-03T09:06:26.615Z,1.75
2023-03-03T09:08:55.098Z,1.84
2023-03-03T09:11:27.592Z,1.94
2023-03-03T09:14:02.863Z,1.97
2023-03-03T09:16:37.192Z,1.94
2023-03-03T09:19:19.945Z,1.94
2023-03-03T09:21:46.759Z,1.99
2023-03-03T09:24:27.956Z,2.02
2023-03-03T09:26:55.520Z,2.02
2023-03-03T09:29:30.911Z,2.10
2023-03-03T09:32:01.019Z,2.12
2023-03-03T09:34:41.641Z,2.17
2023-03-03T09:37:23.515Z,2.23
2023-03-03T09:39:56.698Z,2.31
2023-03-03T09:42:38.850Z,2.38
2023-03-03T09:45:36.190Z,2.47
2023-03-03T09:48:48.298Z,2.56
2023-03-03T09:51:33.501Z,2.66
2023-03-03T09:54:12.625Z,2.78
2023-03-03T09:56:44.576Z,2.92
2023-03-03T09:59:39.272Z,2.94
2023-03-03T10:02:24.101Z,3.00
2023-03-03T10:05:05.774Z,3.06
2023-03-03T10:07:47.533Z,3.15
2023-03-03T10:10:36.569Z,3.26
2023-03-03T10:13:13.495Z,3.23
2023-03-03T10:16:04.103Z,3.18
2023-03-03T10:18:37.419Z,3.12
2023-03-03T10:21:11.794Z,3.14
2023-03-03T10:24:05.072Z,3.16
2023-03-03T10:27:12.650Z,3.17
2023-03-03T10:30:08.333Z,3.12
2023-03-03T10:32:49.481Z,3.08
2023-03-03T10:36:07.304Z,2.92
2023-03-03T10:38:58.725Z,2.91
2023-03-03T10:41:31.337Z,3.03
2023-03-03T10:44:03.184Z,3.20
2023-03-03T10:46:46.249Z,3.29
2023-03-03T10:49:43.728Z,3.23
2023-03-03T10:52:20.014Z,3.32
2023-03-03T10:55:12.015Z,3.44
2023-03-03T10:58:03.133Z,3.62
2023-03-03T11:00:42.413Z,3.70
2023-03-03T11:03:33.330Z,3.75
2023-03-03T11:06:05.481Z,3.87
2023-03-03T11:08:46.089Z,4.05
2023-03-03T11:11:41.517Z,4.12
2023-03-03T11:14:27.697Z,4.07
2023-03-03T11:17:21.736Z,3.95
2023-03-03T11:20:07.076Z,4.11
2023-03-03T11:23:16.942Z,4.19
2023-03-03T11:25:55.977Z,4.34
2023-03-03T11:28:45.663Z,4.51
2023-03-03T11:31:21.328Z,4.56
2023-03-03T11:34:05.316Z,4.69
2023-03-03T11:36:58.011Z,4.84
2023-03-03T11:39:27.617Z,4.96
2023-03-03T11:42:07.106Z,5.05
2023-03-03T11:44:40.746Z,5.16
2023-03-03T11:47:42.520Z,5.26
2023-03-03T11:50:21.129Z,5.34
2023-03-03T11:53:12.769Z,5.37
2023-03-03T11:55:43.118Z,5.41
2023-03-03T11:58:34.665Z,5.51
2023-03-03T12:01:30.353Z,5.69
2023-03-03T12:04:01.761Z,5.86
2023-03-03T12:06:44.118Z,5.87
2023-03-03T12:09:42.947Z,5.90
2023-03-03T12:12:19.544Z,5.92
2023-03-03T12:15:09.250Z,5.84
2023-03-03T12:17:38.488Z,5.71
2023-03-03T12:20:26.019Z,5.66
2023-03-03T12:26:11.759Z,5.53
2023-03-03T12:28:42.304Z,5.52
2023-03-03T12:31:55.853Z,5.55
2023-03-03T12:35:00.900Z,5.62
2023-03-03T12:37:55.419Z,5.49
2023-03-03T12:40:31.130Z,5.50
2023-03-03T12:43:10.791Z,5.35
2023-03-03T12:45:53.765Z,5.31
2023-03-03T12:48:29.189Z,5.32
2023-03-03T12:51:01.123Z,5.42
2023-03-03T12:53:30.538Z,5.53
2023-03-03T12:56:04.345Z,5.52
2023-03-03T12:58:52.572Z,5.42
2023-03-03T13:01:41.314Z,5.35
2023-03-03T13:04:52.821Z,5.37
2023-03-03T13:07:35.396Z,5.38
2023-03-03T13:10:26.346Z,5.37
2023-03-03T13:13:07.118Z,5.40
2023-03-03T13:15:55.247Z,5.38
2023-03-03T13:18:47.420Z,5.45
2023-03-03T13:21:32.282Z,5.52
2023-03-03T13:24:33.165Z,5.58
2023-03-03T13:27:15.289Z,5.60
2023-03-03T13:30:00.200Z,5.63
2023-03-03T13:32:41.036Z,5.67
2023-03-03T13:35:16.699Z,5.71
2023-03-03T13:37:50.371Z,5.72
2023-03-03T13:40:22.517Z,5.74
2023-03-03T13:43:13.846Z,5.74
2023-03-03T13:46:05.675Z,5.79
2023-03-03T13:48:40.252Z,5.79
2023-03-03T13:51:43.345Z,5.84
2023-03-03T13:54:13.114Z,5.84
2023-03-03T13:56:54.633Z,5.78
2023-03-03T13:59:29.493Z,5.79
2023-03-03T14:01:59.450Z,5.77
2023-03-03T14:04:38.076Z,5.80
2023-03-03T14:07:18.368Z,5.86
2023-03-03T14:09:56.868Z,5.91
2023-03-03T14:12:34.680Z,5.92
2023-03-03T14:15:53.811Z,5.87
2023-03-03T14:18:34.752Z,5.88
2023-03-03T14:21:14.417Z,5.90
2023-03-03T14:24:07.821Z,5.91
2023-03-03T14:26:49.985Z,5.92
2023-03-03T14:29:30.776Z,5.95
2023-03-03T14:32:30.492Z,5.97
2023-03-03T14:35:22.151Z,5.95
2023-03-03T14:37:50.989Z,5.96
2023-03-03T14:40:32.919Z,5.97
2023-03-03T14:43:02.416Z,5.98
2023-03-03T14:45:41.287Z,5.95
2023-03-03T14:48:22.101Z,5.90
2023-03-03T14:50:52.760Z,5.85
2023-03-03T14:53:19.969Z,5.83
2023-03-03T14:55:52.177Z,5.81
2023-03-03T14:58:40.874Z,5.77
2023-03-03T15:01:36.303Z,5.71
2023-03-03T15:04:15.831Z,5.60
2023-03-03T15:06:44.224Z,5.55
2023-03-03T15:09:43.461Z,5.52
2023-03-03T15:12:37.487Z,5.40
2023-03-03T15:15:04.443Z,5.44
2023-03-03T15:17:44.485Z,5.45
2023-03-03T15:20:35.729Z,5.39
2023-03-03T15:23:18.696Z,5.19
2023-03-03T15:26:02.276Z,5.05
2023-03-03T15:28:46.218Z,4.99
2023-03-03T15:31:41.543Z,4.98
2023-03-03T15:34:26.458Z,4.93
2023-03-03T15:37:16.592Z,4.92
2023-03-03T15:40:10.584Z,4.85
2023-03-03T15:42:47.558Z,4.78
2023-03-03T15:45:20.037Z,4.76
2023-03-03T15:48:34.994Z,4.71
2023-03-03T15:51:31.089Z,4.72
2023-03-03T15:54:19.181Z,4.68
2023-03-03T15:56:51.387Z,4.67
2023-03-03T15:59:47.140Z,4.65
2023-03-03T16:02:49.533Z,4.58
2023-03-03T16:05:19.457Z,4.56
2023-03-03T16:08:19.692Z,4.53
2023-03-03T16:11:07.964Z,4.50
2023-03-03T16:13:40.994Z,4.44
2023-03-03T16:16:19.343Z,4.38
2023-03-03T16:19:08.049Z,4.34
2023-03-03T16:21:59.098Z,4.24
2023-03-03T16:24:58.400Z,4.18
2023-03-03T16:27:34.555Z,4.11
2023-03-03T16:30:26.862Z,4.06
2023-03-03T16:33:07.198Z,4.04
2023-03-03T16:35:39.809Z,4.01
2023-03-03T16:38:17.225Z,3.97
2023-03-03T16:40:55.500Z,3.93
2023-03-03T16:43:38.914Z,3.86
2023-03-03T16:46:33.532Z,3.79
2023-03-03T16:49:09.746Z,3.73
2023-03-03T16:51:49.343Z,3.67
2023-03-03T16:54:27.037Z,3.64
2023-03-03T16:57:52.763Z,3.57
2023-03-03T17:00:23.805Z,3.50
2023-03-03T17:03:00.370Z,3.47
2023-03-03T17:05:51.885Z,3.39
2023-03-03T17:08:37.404Z,3.31
2023-03-03T17:11:25.653Z,3.25
2023-03-03T17:14:13.233Z,3.18
2023-03-03T17:16:52.608Z,3.12
2023-03-03T17:19:51.780Z,3.05
2023-03-03T17:22:28.288Z,2.99
2023-03-03T17:25:06.872Z,2.94
2023-03-03T17:27:36.950Z,2.91
2023-03-03T17:30:10.309Z,2.86
2023-03-03T17:32:59.045Z,2.80
2023-03-03T17:35:42.412Z,2.74
2023-03-03T17:38:12.414Z,2.67
2023-03-03T17:40:45.514Z,2.59
2023-03-03T17:43:25.612Z,2.54
2023-03-03T17:45:56.221Z,2.47
2023-03-03T17:49:07.921Z,2.39
2023-03-03T17:52:08.970Z,2.34
2023-03-03T17:55:06.734Z,2.28
2023-03-03T17:57:45.416Z,2.21
2023-03-03T18:00:19.770Z,2.15
2023-03-03T18:03:04.844Z,2.10
2023-03-03T18:05:37.959Z,2.04
2023-03-03T18:08:20.221Z,1.98
2023-03-03T18:11:08.610Z,1.93
2023-03-03T18:13:47.611Z,1.88
2023-03-03T18:16:32.793Z,1.84
2023-03-03T18:19:08.802Z,1.81
2023-03-03T18:21:59.733Z,1.75
2023-03-03T18:24:51.642Z,1.71
2023-03-03T18:27:24.416Z,1.69
2023-03-03T18:30:22.186Z,1.68
2023-03-03T18:32:57.607Z,1.67
2023-03-03T18:35:33.662Z,1.65
2023-03-03T18:38:15.503Z,1.66
2023-03-03T18:40:53.188Z,1.67
2023-03-03T18:43:44.655Z,1.66
2023-03-03T18:46:20.557Z,1.68
2023-03-03T18:49:04.510Z,1.72
2023-03-03T18:51:34.249Z,1.73
2023-03-03T18:54:03.528Z,1.77
2023-03-03T18:56:58.455Z,1.79
2023-03-03T18:59:30.812Z,1.80
2023-03-03T19:02:13.200Z,1.81
2023-03-03T19:04:49.022Z,1.83
2023-03-03T19:07:26.868Z,1.84
2023-03-03T19:10:02.517Z,1.85
2023-03-03T19:12:54.681Z,1.88
2023-03-03T19:15:30.941Z,1.92
2023-03-03T19:18:05.915Z,1.93
2023-03-03T19:20:41.295Z,1.95
2023-03-03T19:23:20.742Z,1.98
2023-03-03T19:26:20.183Z,2.01
2023-03-03T19:29:12.593Z,2.05
2023-03-03T19:31:51.521Z,2.08
2023-03-03T19:34:33.730Z,2.11
2023-03-03T19:37:23.135Z,2.14
2023-03-03T19:39:57.172Z,2.16
2023-03-03T19:43:00.936Z,2.19
2023-03-03T19:45:53.579Z,2.22
2023-03-03T19:48:23.732Z,2.25
2023-03-03T19:51:20.943Z,2.28
2023-03-03T19:53:47.499Z,2.30
2023-03-03T19:56:23.725Z,2.30
2023-03-03T19:59:19.096Z,2.33
2023-03-03T20:02:07.425Z,2.35
2023-03-03T20:04:53.189Z,2.38
2023-03-03T20:07:22.838Z,2.38
2023-03-03T20:10:04.701Z,2.40
2023-03-03T20:12:47.957Z,2.42
2023-03-03T20:15:24.090Z,2.45
2023-03-03T20:18:00.006Z,2.47
2023-03-03T20:20:40.070Z,2.47
2023-03-03T20:23:07.308Z,2.50
2023-03-03T20:25:42.292Z,2.50
2023-03-03T20:28:48.292Z,2.53
2023-03-03T20:31:40.103Z,2.55
2023-03-03T20:34:21.980Z,2.55
2023-03-03T20:37:03.629Z,2.54
2023-03-03T20:40:07.900Z,2.53
2023-03-03T20:42:59.657Z,2.54
2023-03-03T20:45:29.528Z,2.54
2023-03-03T20:48:14.750Z,2.55
2023-03-03T20:50:44.662Z,2.57
2023-03-03T20:53:49.825Z,2.57
2023-03-03T20:56:21.028Z,2.53
2023-03-03T20:58:57.473Z,2.56
2023-03-03T21:01:47.749Z,2.54
2023-03-03T21:04:31.375Z,2.55
2023-03-03T21:07:01.236Z,2.54
2023-03-03T21:09:32.887Z,2.53
2023-03-03T21:12:01.997Z,2.54
2023-03-03T21:14:31.345Z,2.54
2023-03-03T21:17:02.866Z,2.53
2023-03-03T21:19:32.660Z,2.56
2023-03-03T21:22:02.361Z,2.54
2023-03-03T21:24:47.848Z,2.54
2023-03-03T21:27:28.532Z,2.55
